Time;durP1;ratioP1;P1;durP2;ratioP2;P2;SDS_P1;SDS_P2;PMS_P1;PMS_P2;Temp;Humidity;BMP_temperature;BMP_pressure;BME280_temperature;BME280_humidity;BME280_pressure;Samples;Min_cycle;Max_cycle;Signal;HPM_P1;HPM_P2
2023/12/18 00:03:55;;;;;;;0.57;0.43;;;;;;;23.10;74.85;103177.41;10448749;28;20052;-80
2023/12/18 00:08:56;;;;;;;0.40;0.40;;;;;;;22.54;75.86;103160.16;10426894;28;20098;-81
2023/12/18 00:13:58;;;;;;;2.67;1.48;;;;;;;22.28;74.75;103160.72;10442280;28;20042;-80
2023/12/18 00:19:00;;;;;;;0.32;0.32;;;;;;;20.34;76.42;103144.28;10455084;28;20048;-79
2023/12/18 00:24:03;;;;;;;1.88;1.17;;;;;;;23.24;74.51;103136.38;10463045;28;20044;-81
2023/12/18 00:29:05;;;;;;;1.42;0.82;;;;;;;23.20;74.46;103139.84;10429377;28;20048;-80
2023/12/18 00:34:07;;;;;;;2.10;1.02;;;;;;;22.57;73.94;103139.19;10431199;28;20047;-79
2023/12/18 00:39:09;;;;;;;1.67;0.63;;;;;;;22.36;77.29;103132.81;10456866;28;20045;-80
2023/12/18 00:44:11;;;;;;;0.98;0.70;;;;;;;22.98;74.56;103129.13;10456753;28;20067;-80
2023/12/18 00:49:13;;;;;;;1.23;0.90;;;;;;;23.58;75.29;103119.94;10459835;28;20063;-80
2023/12/18 00:54:15;;;;;;;3.15;1.85;;;;;;;22.74;75.30;103116.63;10444504;28;20047;-81
2023/12/18 00:59:17;;;;;;;1.15;0.98;;;;;;;22.41;75.85;103131.13;10453580;28;20052;-80
2023/12/18 01:04:19;;;;;;;2.15;0.88;;;;;;;22.93;75.49;103128.19;10450216;28;20037;-81
2023/12/18 01:09:22;;;;;;;0.70;0.70;;;;;;;22.88;75.10;103122.00;10458242;28;20504;-80
2023/12/18 01:14:24;;;;;;;1.38;0.95;;;;;;;22.83;75.22;103123.72;10464539;28;20476;-79
2023/12/18 01:19:26;;;;;;;0.20;0.20;;;;;;;24.22;74.58;103108.91;10443415;28;20048;-81
2023/12/18 01:24:28;;;;;;;0.75;0.65;;;;;;;23.37;74.91;103112.81;10445432;28;20140;-80
2023/12/18 01:29:30;;;;;;;0.63;0.52;;;;;;;23.21;76.23;103103.91;10438122;28;20039;-81
2023/12/18 01:34:32;;;;;;;1.13;0.88;;;;;;;22.12;80.19;103100.13;10448608;28;20049;-81
2023/12/18 01:39:34;;;;;;;1.35;0.95;;;;;;;22.04;78.57;103109.66;10450511;28;20393;-80
2023/12/18 01:44:36;;;;;;;0.63;0.60;;;;;;;22.09;76.09;103107.09;10470274;28;20041;-80
2023/12/18 01:49:38;;;;;;;1.73;1.00;;;;;;;23.13;76.98;103122.22;10445032;28;20110;-81
2023/12/18 01:54:43;;;;;;;1.08;0.90;;;;;;;22.67;77.34;103122.69;10446624;28;20438;-80
2023/12/18 01:59:49;;;;;;;1.92;1.40;;;;;;;24.00;73.46;103123.75;10452034;28;20073;-79
2023/12/18 02:04:51;;;;;;;2.85;1.50;;;;;;;23.30;77.09;103114.50;10454956;28;20037;-80
2023/12/18 02:09:53;;;;;;;2.60;1.02;;;;;;;23.21;76.63;103114.44;10451621;28;20102;-79
2023/12/18 02:14:56;;;;;;;2.80;0.55;;;;;;;22.92;76.64;103096.63;10449332;28;20167;-80
2023/12/18 02:20:08;;;;;;;2.25;0.90;;;;;;;23.38;77.71;103102.28;10433705;28;20505;-80
2023/12/18 02:25:10;;;;;;;1.30;0.75;;;;;;;22.10;80.98;103107.09;10461647;28;20472;-80
2023/12/18 02:30:17;;;;;;;1.00;1.00;;;;;;;24.17;74.94;103109.75;10449586;28;20049;-80
2023/12/18 02:35:19;;;;;;;3.33;1.10;;;;;;;23.50;77.02;103103.22;10453924;28;20052;-80
2023/12/18 02:40:22;;;;;;;3.85;0.82;;;;;;;21.47;79.09;103116.66;10456597;28;20053;-79
2023/12/18 02:45:24;;;;;;;0.63;0.55;;;;;;;23.07;77.65;103109.91;10432716;28;20666;-80
2023/12/18 02:50:26;;;;;;;0.43;0.40;;;;;;;22.72;78.08;103105.22;10428580;28;20050;-80
2023/12/18 02:55:28;;;;;;;1.48;0.88;;;;;;;21.59;79.69;103102.91;10446566;28;20049;-79
2023/12/18 03:00:29;;;;;;;1.98;1.88;;;;;;;24.41;76.51;103098.44;10433094;28;20131;-80
2023/12/18 03:05:31;;;;;;;2.83;1.08;;;;;;;21.97;78.33;103097.31;10445973;28;20094;-80
2023/12/18 03:10:33;;;;;;;0.50;0.50;;;;;;;22.55;79.29;103077.88;10458636;28;20095;-79
2023/12/18 03:15:35;;;;;;;1.35;1.20;;;;;;;22.78;77.28;103072.88;10456846;28;20522;-79
2023/12/18 03:20:36;;;;;;;2.55;1.98;;;;;;;22.85;78.68;103071.16;10442024;28;20053;-79
2023/12/18 03:25:38;;;;;;;0.60;0.45;;;;;;;23.65;75.96;103061.22;10426296;28;20038;-79
2023/12/18 03:30:40;;;;;;;1.95;1.23;;;;;;;22.64;79.22;103064.84;10453055;28;20060;-80
2023/12/18 03:35:42;;;;;;;0.82;0.52;;;;;;;22.79;79.15;103070.25;10450689;28;20140;-80
2023/12/18 03:40:43;;;;;;;2.25;1.17;;;;;;;21.65;77.15;103064.53;10446403;28;20135;-80
2023/12/18 03:45:45;;;;;;;1.30;1.20;;;;;;;21.79;80.49;103071.69;10449958;28;20041;-79
2023/12/18 03:50:47;;;;;;;1.55;1.25;;;;;;;23.79;78.77;103063.94;10440383;28;20381;-80
2023/12/18 03:55:49;;;;;;;1.05;0.80;;;;;;;22.18;82.09;103065.19;10448421;28;20052;-80
2023/12/18 04:00:50;;;;;;;1.75;0.77;;;;;;;23.06;80.26;103063.44;10442089;28;20049;-80
2023/12/18 04:05:52;;;;;;;1.00;0.93;;;;;;;21.90;79.96;103084.97;10434679;28;20098;-80
2023/12/18 04:10:54;;;;;;;1.20;0.73;;;;;;;21.64;81.44;103073.25;10428352;28;20057;-80
2023/12/18 04:15:56;;;;;;;0.98;0.88;;;;;;;22.42;77.16;103071.59;10445019;28;20049;-79
2023/12/18 04:21:02;;;;;;;1.13;1.10;;;;;;;24.64;77.95;103066.84;10460527;28;20523;-80
2023/12/18 04:26:04;;;;;;;2.53;1.30;;;;;;;22.73;80.65;103072.81;10437728;28;20063;-80
2023/12/18 04:31:06;;;;;;;1.08;1.00;;;;;;;22.54;81.66;103070.84;10442295;28;20507;-80
2023/12/18 04:36:08;;;;;;;2.92;0.73;;;;;;;21.64;79.89;103072.34;10454437;28;20056;-81
2023/12/18 04:41:22;;;;;;;0.98;0.70;;;;;;;21.15;80.83;103057.63;10458175;28;20054;-79
2023/12/18 04:46:24;;;;;;;0.47;0.47;;;;;;;22.92;81.47;103051.94;10465305;28;20073;-80
2023/12/18 04:51:26;;;;;;;1.48;0.85;;;;;;;21.53;81.91;103048.56;10462730;28;20051;-80
2023/12/18 04:56:28;;;;;;;1.60;1.02;;;;;;;21.92;81.46;103049.13;10458823;28;20110;-80
2023/12/18 05:01:30;;;;;;;1.20;1.10;;;;;;;22.01;80.88;103046.59;10448602;28;20500;-80
2023/12/18 05:06:32;;;;;;;1.92;1.25;;;;;;;21.38;85.30;103044.00;10466189;28;20063;-80
2023/12/18 05:11:34;;;;;;;5.32;1.40;;;;;;;23.00;80.34;103052.88;10462300;28;20419;-81
2023/12/18 05:16:36;;;;;;;0.57;0.47;;;;;;;22.35;80.69;103060.13;10450660;28;20042;-80
2023/12/18 05:21:38;;;;;;;3.67;2.25;;;;;;;21.84;82.65;103068.28;10453804;28;20053;-80
2023/12/18 05:26:39;;;;;;;2.80;0.98;;;;;;;22.28;80.99;103063.56;10437340;28;20037;-81
2023/12/18 05:31:41;;;;;;;3.42;1.80;;;;;;;21.28;82.07;103049.94;10446659;28;20087;-80
2023/12/18 05:36:43;;;;;;;1.25;0.57;;;;;;;23.49;80.55;103047.13;10463704;28;20054;-80
2023/12/18 05:41:45;;;;;;;1.10;1.00;;;;;;;22.27;81.35;103051.28;10434981;28;20053;-80
2023/12/18 05:46:47;;;;;;;0.93;0.85;;;;;;;21.08;84.57;103040.03;10436312;28;20133;-79
2023/12/18 05:51:49;;;;;;;1.88;1.33;;;;;;;20.84;86.38;103038.78;10471448;28;20053;-79
2023/12/18 05:56:51;;;;;;;2.65;1.42;;;;;;;22.41;85.25;103025.22;10445014;28;20050;-80
2023/12/18 06:01:53;;;;;;;4.25;1.05;;;;;;;22.04;86.45;103025.66;10456106;28;20047;-80
2023/12/18 06:06:55;;;;;;;1.48;1.25;;;;;;;21.32;85.79;103022.94;10461268;28;20044;-80
2023/12/18 06:11:56;;;;;;;2.13;0.82;;;;;;;21.13;84.42;103035.75;10458946;28;20110;-81
2023/12/18 06:16:58;;;;;;;1.85;0.95;;;;;;;20.27;90.09;103043.84;10451928;28;20045;-80
2023/12/18 06:22:01;;;;;;;2.67;1.52;;;;;;;22.95;81.80;103038.84;10441926;28;20107;-80
2023/12/18 06:27:03;;;;;;;0.52;0.40;;;;;;;20.97;84.60;103047.72;10444769;28;20037;-79
2023/12/18 06:32:05;;;;;;;3.47;1.25;;;;;;;21.31;87.05;103047.38;10456508;28;20048;-79
2023/12/18 06:37:08;;;;;;;2.88;1.50;;;;;;;21.23;85.14;103048.16;10460692;28;20047;-80
2023/12/18 06:42:10;;;;;;;1.95;1.10;;;;;;;23.02;82.89;103038.00;10438477;28;20147;-80
2023/12/18 06:47:12;;;;;;;3.90;1.40;;;;;;;21.31;86.30;103036.91;10456386;28;20130;-79
2023/12/18 06:52:14;;;;;;;1.08;0.98;;;;;;;21.98;85.30;103033.47;10455900;28;20052;-79
2023/12/18 06:57:16;;;;;;;4.97;1.73;;;;;;;22.61;85.53;103028.03;10464353;28;20047;-84
2023/12/18 07:02:18;;;;;;;1.27;1.17;;;;;;;21.53;86.81;103025.88;10448108;28;20056;-80
2023/12/18 07:07:20;;;;;;;1.42;1.15;;;;;;;21.71;84.92;103022.63;10445235;28;20045;-80
2023/12/18 07:12:22;;;;;;;0.57;0.57;;;;;;;21.44;86.67;103025.72;10460732;28;20087;-80
2023/12/18 07:17:24;;;;;;;2.90;1.45;;;;;;;21.19;85.18;103032.34;10446788;28;20302;-80
2023/12/18 07:22:26;;;;;;;14.48;2.55;;;;;;;20.07;90.13;103039.91;10453463;28;20037;-79
2023/12/18 07:27:28;;;;;;;3.80;1.80;;;;;;;22.35;85.96;103039.13;10441784;28;20156;-79
2023/12/18 07:32:33;;;;;;;2.72;1.02;;;;;;;22.74;86.92;103036.91;10435964;28;20046;-81
2023/12/18 07:37:35;;;;;;;4.68;1.52;;;;;;;23.32;82.95;103035.59;10442201;28;20119;-79
2023/12/18 07:42:37;;;;;;;1.42;1.27;;;;;;;23.04;83.92;103044.19;10447636;28;20143;-80
2023/12/18 07:47:41;;;;;;;5.47;2.25;;;;;;;20.16;90.58;103036.63;10441488;28;20036;-80
2023/12/18 07:52:43;;;;;;;1.65;1.45;;;;;;;23.91;83.96;103031.53;10429242;28;20060;-80
2023/12/18 07:57:45;;;;;;;1.80;0.98;;;;;;;23.35;83.53;103025.13;10440941;28;20456;-79
2023/12/18 08:02:47;;;;;;;2.67;1.27;;;;;;;23.25;82.68;103024.19;10432554;28;20103;-79
2023/12/18 08:07:49;;;;;;;2.75;1.48;;;;;;;22.47;82.94;103031.41;10447693;28;20539;-80
2023/12/18 08:12:50;;;;;;;1.85;1.27;;;;;;;22.55;82.42;103033.22;10454770;28;20055;-80
2023/12/18 08:17:52;;;;;;;6.72;2.05;;;;;;;22.84;84.75;103029.97;10431248;28;20049;-80
2023/12/18 08:22:54;;;;;;;2.25;1.30;;;;;;;22.12;83.81;103029.25;10445995;28;20136;-80
2023/12/18 08:27:56;;;;;;;1.58;0.93;;;;;;;22.92;84.80;103020.41;10432909;28;20043;-80
2023/12/18 08:32:58;;;;;;;2.67;1.27;;;;;;;22.39;83.61;103016.44;10457621;28;20095;-80
2023/12/18 08:37:59;;;;;;;2.53;1.35;;;;;;;22.74;85.65;103013.25;10444542;28;20092;-80
2023/12/18 08:43:01;;;;;;;4.63;2.15;;;;;;;22.15;85.15;103018.78;10427947;28;20048;-80
2023/12/18 08:48:04;;;;;;;3.85;1.08;;;;;;;22.94;84.02;103010.78;10428510;28;20448;-80
2023/12/18 08:53:05;;;;;;;1.17;1.08;;;;;;;23.91;83.02;103007.84;10442524;28;20155;-80
2023/12/18 08:58:08;;;;;;;2.42;1.20;;;;;;;22.59;85.49;103014.88;10444767;28;20508;-79
2023/12/18 09:03:10;;;;;;;4.20;1.42;;;;;;;23.09;85.27;102999.50;10423384;28;20095;-80
2023/12/18 09:08:13;;;;;;;4.13;1.50;;;;;;;21.68;87.96;103006.84;10452968;28;20046;-79
2023/12/18 09:13:15;;;;;;;5.97;2.40;;;;;;;23.62;85.30;102995.47;10436554;28;20053;-79
2023/12/18 09:18:17;;;;;;;4.78;1.92;;;;;;;23.12;84.84;102989.00;10450764;28;20072;-79
2023/12/18 09:23:19;;;;;;;2.65;1.67;;;;;;;22.55;82.97;103009.56;10458563;28;20084;-79
2023/12/18 09:28:20;;;;;;;1.00;0.85;;;;;;;21.98;87.01;103015.97;10432136;28;20045;-79
2023/12/18 09:33:22;;;;;;;2.47;2.13;;;;;;;21.99;85.46;103012.47;10445216;28;20045;-80
2023/12/18 09:38:25;;;;;;;2.47;1.08;;;;;;;21.67;86.87;103017.31;10448974;28;20064;-79
2023/12/18 09:43:27;;;;;;;2.60;1.08;;;;;;;23.09;86.77;103007.38;10444011;28;20053;-80
2023/12/18 09:48:29;;;;;;;1.45;1.35;;;;;;;22.74;85.82;103008.91;10431839;28;20077;-79
2023/12/18 09:53:32;;;;;;;1.40;1.13;;;;;;;21.54;85.96;103009.28;10453354;28;20032;-79
2023/12/18 09:58:34;;;;;;;1.77;1.30;;;;;;;21.71;86.63;103003.38;10443382;28;20052;-79
2023/12/18 10:03:35;;;;;;;4.22;1.58;;;;;;;21.47;87.96;102994.31;10457188;28;20144;-80
2023/12/18 10:08:38;;;;;;;2.10;1.95;;;;;;;20.63;89.34;102999.09;10440331;28;20057;-79
2023/12/18 10:13:42;;;;;;;1.75;1.25;;;;;;;22.24;88.13;102988.22;10442442;28;20045;-79
2023/12/18 10:18:44;;;;;;;1.65;1.25;;;;;;;21.79;87.83;102991.25;10429871;28;20491;-79
2023/12/18 10:23:46;;;;;;;0.70;0.68;;;;;;;21.29;90.04;102986.19;10467002;28;20128;-78
2023/12/18 10:28:50;;;;;;;3.42;1.88;;;;;;;21.48;85.74;102982.94;10440037;28;20483;-79
2023/12/18 10:33:52;;;;;;;3.10;1.60;;;;;;;22.57;84.66;102981.59;10444109;28;20168;-79
2023/12/18 10:38:56;;;;;;;1.52;1.17;;;;;;;22.09;88.36;102975.84;10442295;28;20044;-80
2023/12/18 10:43:59;;;;;;;3.80;1.45;;;;;;;22.71;86.44;102966.81;10428984;28;20073;-79
2023/12/18 10:49:02;;;;;;;0.55;0.52;;;;;;;21.78;88.63;102962.38;10454144;28;20140;-79
2023/12/18 10:54:05;;;;;;;4.32;1.60;;;;;;;21.30;91.08;102961.72;10450101;28;20075;-80
2023/12/18 10:59:07;;;;;;;4.05;1.05;;;;;;;21.70;87.14;102960.53;10444847;28;20063;-79
2023/12/18 11:04:09;;;;;;;3.20;1.92;;;;;;;20.25;91.25;102951.31;10449692;28;20041;-79
2023/12/18 11:09:11;;;;;;;2.80;1.77;;;;;;;22.12;88.79;102940.00;10430555;28;20081;-79
2023/12/18 11:14:58;;;;;;;3.95;1.17;;;;;;;21.99;87.96;102928.50;10431169;28;20123;-81
2023/12/18 11:20:06;;;;;;;3.78;1.50;;;;;;;22.26;87.79;102921.78;10438163;28;20065;-79
2023/12/18 11:25:08;;;;;;;4.07;1.77;;;;;;;22.84;89.94;102909.09;10438524;28;20140;-80
2023/12/18 11:30:31;;;;;;;1.85;1.63;;;;;;;22.06;87.70;102910.19;10433740;28;20049;-80
2023/12/18 11:35:34;;;;;;;1.90;1.73;;;;;;;22.62;85.92;102912.47;10482995;28;20052;-79
2023/12/18 11:40:40;;;;;;;0.70;0.45;;;;;;;21.91;89.55;102916.16;10436316;28;20110;-79
2023/12/18 11:45:44;;;;;;;2.75;1.48;;;;;;;21.94;89.26;102914.44;10439719;28;20068;-79
2023/12/18 11:50:48;;;;;;;1.27;0.85;;;;;;;21.29;90.52;102907.53;10435948;28;20322;-79
2023/12/18 11:55:52;;;;;;;0.57;0.52;;;;;;;23.09;88.21;102900.50;10445131;28;20068;-81
2023/12/18 12:00:56;;;;;;;3.38;2.08;;;;;;;23.69;86.59;102886.72;10463885;28;20045;-80
2023/12/18 12:05:58;;;;;;;2.22;1.20;;;;;;;23.25;89.66;102874.31;10440852;28;20041;-80
2023/12/18 12:11:00;;;;;;;5.90;1.85;;;;;;;21.24;90.72;102879.53;10422982;28;20049;-80
2023/12/18 12:16:03;;;;;;;4.95;1.25;;;;;;;21.52;91.32;102879.84;10445359;28;20086;-80
2023/12/18 12:21:05;;;;;;;3.13;1.85;;;;;;;21.92;88.51;102870.69;10444876;28;20455;-80
2023/12/18 12:26:09;;;;;;;1.75;1.33;;;;;;;22.73;88.28;102869.59;10424012;28;20431;-80
2023/12/18 12:31:11;;;;;;;0.93;0.73;;;;;;;23.53;86.85;102848.94;10447032;28;20483;-79
2023/12/18 12:36:20;;;;;;;1.55;1.05;;;;;;;21.20;91.72;102833.16;10441992;28;20129;-80
2023/12/18 12:41:23;;;;;;;1.67;1.33;;;;;;;21.83;89.36;102838.25;10435581;28;20493;-80
2023/12/18 12:46:25;;;;;;;4.93;2.30;;;;;;;22.31;90.00;102846.53;10454079;28;20045;-79
2023/12/18 12:51:37;;;;;;;1.08;1.00;;;;;;;21.80;91.72;102846.09;10464994;28;20056;-79
2023/12/18 12:56:40;;;;;;;1.05;0.95;;;;;;;21.50;92.49;102834.38;10439103;28;20045;-79
2023/12/18 13:01:42;;;;;;;0.82;0.40;;;;;;;22.70;86.61;102831.06;10437404;28;20102;-80
2023/12/18 13:06:44;;;;;;;3.22;1.20;;;;;;;23.29;88.75;102823.47;10442923;28;20037;-80
2023/12/18 13:11:46;;;;;;;2.42;1.27;;;;;;;22.95;90.08;102828.56;10453569;28;20049;-80
2023/12/18 13:16:48;;;;;;;1.80;1.13;;;;;;;21.82;90.70;102815.50;10452354;28;20045;-80
2023/12/18 13:21:49;;;;;;;3.22;1.75;;;;;;;22.23;90.17;102816.72;10445407;28;20136;-80
2023/12/18 13:27:05;;;;;;;6.13;1.35;;;;;;;23.58;87.54;102809.50;10471113;28;20419;-80
2023/12/18 13:32:08;;;;;;;0.82;0.63;;;;;;;23.58;86.52;102801.59;10448276;28;20048;-81
2023/12/18 13:37:09;;;;;;;1.88;0.90;;;;;;;23.69;85.71;102781.47;10432277;28;20053;-80
2023/12/18 13:42:14;;;;;;;3.78;1.58;;;;;;;23.59;84.76;102791.09;10442928;28;20054;-79
2023/12/18 13:47:17;;;;;;;1.00;0.52;;;;;;;23.21;86.24;102773.50;10451410;28;20045;-80
2023/12/18 13:52:20;;;;;;;0.43;0.28;;;;;;;20.35;89.39;102779.59;10445954;28;20083;-79
2023/12/18 13:57:22;;;;;;;0.98;0.98;;;;;;;24.13;84.08;102765.69;10441582;28;20061;-80
2023/12/18 14:02:25;;;;;;;2.03;1.13;;;;;;;23.24;88.20;102770.00;10450478;28;20041;-78
2023/12/18 14:07:27;;;;;;;1.13;0.98;;;;;;;24.32;82.96;102764.75;10427645;28;20492;-79
2023/12/18 14:12:29;;;;;;;1.83;1.05;;;;;;;21.95;88.83;102763.13;10442370;28;20048;-79
2023/12/18 14:17:32;;;;;;;1.40;0.85;;;;;;;22.44;87.98;102779.25;10442932;28;20057;-79
2023/12/18 14:22:35;;;;;;;2.28;0.75;;;;;;;22.69;88.17;102753.09;10439638;28;20049;-79
2023/12/18 14:27:36;;;;;;;2.45;1.33;;;;;;;22.48;86.98;102748.66;10445278;28;20496;-80
2023/12/18 14:32:38;;;;;;;1.05;0.73;;;;;;;21.48;87.89;102752.19;10444867;28;20045;-79
2023/12/18 14:37:41;;;;;;;0.45;0.45;;;;;;;22.22;89.41;102751.94;10405201;28;20045;-80
2023/12/18 14:42:43;;;;;;;3.42;1.85;;;;;;;21.78;88.01;102739.38;10417398;28;20046;-79
2023/12/18 14:47:46;;;;;;;0.80;0.80;;;;;;;21.56;91.77;102724.28;10400738;28;20045;-79
2023/12/18 14:52:47;;;;;;;0.30;0.30;;;;;;;22.11;89.30;102735.25;10416323;28;20041;-79
2023/12/18 14:57:49;;;;;;;1.65;0.77;;;;;;;20.52;91.25;102745.78;10390982;28;20056;-79
2023/12/18 15:02:51;;;;;;;0.85;0.75;;;;;;;20.97;91.48;102756.00;10428951;28;20533;-79
2023/12/18 15:07:53;;;;;;;3.72;1.02;;;;;;;22.94;85.49;102769.00;10416201;28;20404;-79
2023/12/18 15:12:57;;;;;;;1.63;0.93;;;;;;;22.20;87.48;102769.44;10419118;28;20049;-79
2023/12/18 15:17:59;;;;;;;3.90;1.60;;;;;;;21.56;87.44;102755.75;10415185;28;20370;-78
2023/12/18 15:23:01;;;;;;;0.90;0.77;;;;;;;21.67;89.27;102737.53;10413707;28;20038;-80
2023/12/18 15:28:03;;;;;;;3.92;1.70;;;;;;;22.13;89.48;102731.78;10416015;28;20042;-79
2023/12/18 15:33:05;;;;;;;1.17;1.10;;;;;;;22.90;85.57;102733.94;10415184;28;20057;-79
2023/12/18 15:38:07;;;;;;;3.60;0.50;;;;;;;21.29;87.92;102745.00;10402271;28;20559;-79
2023/12/18 15:43:08;;;;;;;1.85;1.02;;;;;;;20.69;93.67;102764.38;10413925;28;20564;-79
2023/12/18 15:48:10;;;;;;;0.35;0.35;;;;;;;22.68;87.85;102772.38;10397716;28;20041;-79
2023/12/18 15:53:12;;;;;;;2.95;1.38;;;;;;;23.47;86.58;102732.34;10414656;28;20207;-79
2023/12/18 15:58:14;;;;;;;0.65;0.55;;;;;;;22.28;87.79;102727.50;10414059;28;20576;-79
2023/12/18 16:03:16;;;;;;;0.65;0.40;;;;;;;22.32;87.63;102734.50;10404070;28;20095;-79
2023/12/18 16:08:18;;;;;;;1.95;1.63;;;;;;;22.24;88.86;102721.34;10421166;28;20503;-79
2023/12/18 16:13:21;;;;;;;0.88;0.73;;;;;;;20.87;89.27;102731.44;10427092;28;20049;-78
2023/12/18 16:18:23;;;;;;;1.02;0.85;;;;;;;22.72;87.27;102721.59;10420682;28;20049;-79
2023/12/18 16:23:25;;;;;;;2.42;0.90;;;;;;;22.94;87.44;102698.03;10415596;28;20045;-79
2023/12/18 16:28:26;;;;;;;2.13;0.70;;;;;;;22.28;84.19;102698.59;10426141;28;20476;-78
2023/12/18 16:33:28;;;;;;;1.98;1.25;;;;;;;21.36;89.39;102694.38;10418542;28;20076;-78
2023/12/18 16:38:31;;;;;;;0.80;0.80;;;;;;;23.09;85.45;102674.41;10426043;28;20049;-80
2023/12/18 16:43:35;;;;;;;2.60;1.75;;;;;;;22.26;88.91;102680.22;10415077;28;20044;-79
2023/12/18 16:48:37;;;;;;;1.08;0.68;;;;;;;20.75;88.38;102699.00;10403150;28;20132;-79
2023/12/18 16:53:39;;;;;;;3.13;1.70;;;;;;;20.58;86.03;102693.53;10401138;28;20128;-79
2023/12/18 16:58:41;;;;;;;9.45;1.98;;;;;;;21.65;87.40;102681.56;10413962;28;20041;-78
2023/12/18 17:03:43;;;;;;;2.38;1.20;;;;;;;20.97;90.25;102680.91;10406560;28;20144;-79
2023/12/18 17:08:44;;;;;;;1.17;1.08;;;;;;;21.31;89.82;102685.63;10423217;28;20503;-79
2023/12/18 17:13:46;;;;;;;1.48;0.77;;;;;;;21.56;90.10;102690.19;10404924;28;20063;-79
2023/12/18 17:18:48;;;;;;;1.08;0.55;;;;;;;22.75;84.73;102700.59;10406782;28;20056;-80
2023/12/18 17:23:50;;;;;;;0.75;0.45;;;;;;;20.38;87.09;102695.88;10415903;28;20042;-79
2023/12/18 17:28:53;;;;;;;2.05;1.25;;;;;;;22.27;85.18;102712.59;10420163;28;20408;-79
2023/12/18 17:33:56;;;;;;;0.15;0.15;;;;;;;21.98;86.10;102723.78;10414907;28;20124;-80
2023/12/18 17:38:58;;;;;;;1.83;1.40;;;;;;;21.19;86.03;102733.53;10425656;28;20099;-79
2023/12/18 17:44:00;;;;;;;2.20;1.02;;;;;;;21.22;87.30;102702.13;10406305;28;20042;-80
2023/12/18 17:49:02;;;;;;;1.80;0.75;;;;;;;19.91;86.56;102668.19;10418591;28;20064;-79
2023/12/18 17:54:06;;;;;;;1.48;1.35;;;;;;;21.34;88.62;102655.06;10404150;28;20061;-79
2023/12/18 17:59:07;;;;;;;1.95;1.55;;;;;;;20.23;88.33;102662.50;10407385;28;20136;-79
2023/12/18 18:04:09;;;;;;;1.25;0.77;;;;;;;20.09;94.94;102656.22;10403000;28;20041;-80
2023/12/18 18:09:11;;;;;;;3.85;1.73;;;;;;;21.19;88.13;102636.56;10411879;28;20553;-79
2023/12/18 18:14:13;;;;;;;1.90;1.08;;;;;;;21.26;90.20;102625.28;10431436;28;20102;-79
2023/12/18 18:19:19;;;;;;;1.33;0.68;;;;;;;20.46;91.54;102633.13;10421185;28;20613;-80
2023/12/18 18:24:23;;;;;;;2.08;1.58;;;;;;;21.38;88.31;102638.47;10424644;28;20040;-80
2023/12/18 18:29:25;;;;;;;1.75;1.35;;;;;;;18.59;95.41;102623.13;10428330;28;20046;-79
2023/12/18 18:34:27;;;;;;;0.98;0.95;;;;;;;20.29;91.28;102623.34;10426938;28;20037;-79
2023/12/18 18:39:29;;;;;;;2.95;1.33;;;;;;;19.53;91.74;102623.97;10422295;28;20042;-79
2023/12/18 18:44:31;;;;;;;10.82;2.35;;;;;;;21.06;89.45;102631.22;10416183;28;20132;-79
2023/12/18 18:49:32;;;;;;;1.40;1.15;;;;;;;21.21;89.32;102616.50;10424635;28;20044;-78
2023/12/18 18:54:35;;;;;;;1.45;0.93;;;;;;;20.80;91.57;102662.41;10433457;28;20484;-79
2023/12/18 18:59:39;;;;;;;2.72;0.82;;;;;;;19.30;94.48;102629.69;10428337;28;20136;-78
2023/12/18 19:04:40;;;;;;;3.75;1.40;;;;;;;21.28;89.21;102622.66;10410286;28;20564;-79
2023/12/18 19:09:42;;;;;;;0.63;0.63;;;;;;;20.22;92.03;102594.47;10415248;28;20053;-80
2023/12/18 19:14:44;;;;;;;5.22;1.83;;;;;;;19.21;92.12;102619.09;10400790;28;20045;-80
2023/12/18 19:19:46;;;;;;;2.53;0.95;;;;;;;20.28;92.32;102621.59;10414765;28;20049;-80
2023/12/18 19:24:49;;;;;;;1.42;1.10;;;;;;;18.50;94.14;102630.78;10418897;28;20045;-79
2023/12/18 19:29:51;;;;;;;1.58;1.25;;;;;;;19.60;92.23;102624.94;10410939;28;20564;-80
2023/12/18 19:34:53;;;;;;;0.82;0.82;;;;;;;18.90;94.38;102617.63;10418125;28;20034;-79
2023/12/18 19:39:55;;;;;;;5.50;1.73;;;;;;;19.14;96.77;102605.03;10415635;28;20480;-79
2023/12/18 19:44:56;;;;;;;3.60;0.77;;;;;;;20.31;89.30;102619.84;10423718;28;20037;-79
2023/12/18 19:50:00;;;;;;;1.90;1.10;;;;;;;20.28;90.53;102620.69;10403868;28;20495;-80
2023/12/18 19:55:05;;;;;;;7.20;1.10;;;;;;;20.43;86.79;102614.78;10424256;28;20055;-80
2023/12/18 20:00:14;;;;;;;3.28;1.75;;;;;;;20.96;87.69;102618.03;10423012;28;20061;-79
2023/12/18 20:05:16;;;;;;;17.50;4.18;;;;;;;20.08;91.98;102616.09;10422062;28;20782;-79
2023/12/18 20:10:19;;;;;;;1.45;0.85;;;;;;;19.57;90.45;102599.63;10417461;28;20048;-80
2023/12/18 20:15:20;;;;;;;2.15;1.23;;;;;;;19.86;87.87;102617.53;10415876;28;20542;-79
2023/12/18 20:20:24;;;;;;;1.05;0.98;;;;;;;19.74;87.13;102612.09;10425189;28;20132;-80
2023/12/18 20:25:25;;;;;;;6.57;2.15;;;;;;;21.45;88.30;102599.19;10412006;28;20050;-80
2023/12/18 20:30:27;;;;;;;2.13;1.42;;;;;;;19.92;91.02;102591.44;10420289;28;20050;-79
2023/12/18 20:35:29;;;;;;;1.33;1.23;;;;;;;19.59;89.63;102592.69;10417334;28;20056;-80
2023/12/18 20:40:31;;;;;;;1.05;0.95;;;;;;;20.15;92.66;102577.78;10442137;28;20393;-80
2023/12/18 20:45:32;;;;;;;1.10;0.80;;;;;;;19.38;92.06;102577.53;10407912;28;20050;-79
2023/12/18 20:50:34;;;;;;;3.33;0.47;;;;;;;20.21;89.47;102604.06;10413982;28;20049;-80
2023/12/18 20:55:36;;;;;;;2.28;1.05;;;;;;;20.12;87.67;102625.72;10415502;28;20045;-79
2023/12/18 21:00:37;;;;;;;1.08;1.02;;;;;;;19.59;89.90;102618.84;10392176;28;20459;-80
2023/12/18 21:05:39;;;;;;;10.02;2.03;;;;;;;19.96;91.13;102574.94;10394187;28;20048;-80
2023/12/18 21:10:41;;;;;;;2.45;0.82;;;;;;;18.19;96.57;102552.75;10396418;28;20045;-79
2023/12/18 21:15:45;;;;;;;2.22;1.33;;;;;;;21.94;85.43;102552.34;10393541;28;20127;-80
2023/12/18 21:20:47;;;;;;;2.10;0.90;;;;;;;20.99;88.81;102544.69;10409833;28;20053;-80
2023/12/18 21:25:49;;;;;;;0.50;0.50;;;;;;;20.57;90.48;102534.66;10406029;28;20092;-80
2023/12/18 21:30:51;;;;;;;1.60;0.70;;;;;;;19.06;94.03;102523.06;10421043;28;20053;-80
2023/12/18 21:35:53;;;;;;;2.75;2.10;;;;;;;19.40;92.59;102507.03;10426414;28;20037;-80
2023/12/18 21:40:54;;;;;;;8.43;1.52;;;;;;;20.00;93.82;102512.19;10419689;28;20149;-80
2023/12/18 21:45:57;;;;;;;1.83;1.70;;;;;;;18.24;94.22;102500.66;10422835;28;20045;-81
2023/12/18 21:50:59;;;;;;;2.35;1.70;;;;;;;20.37;93.58;102487.34;10433515;28;20049;-80
2023/12/18 21:56:01;;;;;;;2.70;0.98;;;;;;;18.79;96.64;102479.03;10405084;28;20809;-79
2023/12/18 22:01:03;;;;;;;3.40;1.65;;;;;;;20.17;91.56;102471.41;10424431;28;20493;-80
2023/12/18 22:06:05;;;;;;;4.15;1.75;;;;;;;19.74;94.55;102489.19;10417387;28;20042;-80
2023/12/18 22:11:07;;;;;;;2.95;2.30;;;;;;;21.73;89.43;102524.22;10411062;28;20132;-80
2023/12/18 22:16:10;;;;;;;4.13;2.17;;;;;;;20.73;91.09;102535.72;10426509;28;20443;-79
2023/12/18 22:21:11;;;;;;;2.08;1.50;;;;;;;18.57;94.26;102533.50;10410073;28;20132;-79
2023/12/18 22:26:13;;;;;;;1.58;1.23;;;;;;;19.15;95.79;102524.94;10417255;28;20038;-80
2023/12/18 22:31:15;;;;;;;2.85;1.38;;;;;;;18.82;95.13;102508.69;10408820;28;20495;-79
2023/12/18 22:36:18;;;;;;;3.58;1.48;;;;;;;21.07;90.85;102515.03;10425988;28;20077;-80
2023/12/18 22:41:20;;;;;;;1.63;1.23;;;;;;;20.09;95.00;102489.66;10428309;28;21074;-81
2023/12/18 22:46:22;;;;;;;0.73;0.55;;;;;;;19.91;94.25;102479.84;10426747;28;20408;-79
2023/12/18 22:51:23;;;;;;;1.13;0.88;;;;;;;20.71;94.07;102469.31;10429507;28;20058;-80
2023/12/18 22:56:25;;;;;;;0.75;0.55;;;;;;;20.21;95.97;102474.94;10400500;28;20049;-80
2023/12/18 23:01:28;;;;;;;1.58;1.38;;;;;;;19.40;93.25;102457.38;10439493;28;20068;-80
2023/12/18 23:06:31;;;;;;;1.52;1.42;;;;;;;19.89;95.99;102463.25;10423429;28;20049;-79
2023/12/18 23:11:33;;;;;;;2.55;1.23;;;;;;;19.25;96.28;102460.63;10427239;28;20136;-80